Time;durP1;ratioP1;P1;durP2;ratioP2;P2;SDS_P1;SDS_P2;PMS_P1;PMS_P2;Temp;Humidity;BMP_temperature;BMP_pressure;BME280_temperature;BME280_humidity;BME280_pressure;Samples;Min_cycle;Max_cycle;Signal;HPM_P1;HPM_P2
2023/06/29 00:00:29;;;;;;;17.50;9.55;;;18.30;99.90;;;;;;5116654;28;20331;-56
2023/06/29 00:02:55;;;;;;;19.67;9.38;;;18.30;99.90;;;;;;5134456;28;20047;-56
2023/06/29 00:05:21;;;;;;;15.80;9.73;;;18.30;99.90;;;;;;5134486;28;20082;-56
2023/06/29 00:07:47;;;;;;;17.48;9.88;;;18.30;99.90;;;;;;5134507;28;20432;-56
2023/06/29 00:10:13;;;;;;;15.82;9.48;;;18.30;99.90;;;;;;5136635;27;20047;-56
2023/06/29 00:12:40;;;;;;;20.50;10.93;;;18.30;99.90;;;;;;5138520;27;20545;-56
2023/06/29 00:15:06;;;;;;;17.65;10.15;;;18.30;99.90;;;;;;5138319;27;20055;-56
2023/06/29 00:17:33;;;;;;;;;;;18.30;99.90;;;;;;5139183;27;20388;-56
2023/06/29 00:20:00;;;;;;;22.63;10.40;;;18.30;99.90;;;;;;5120396;27;19969;-56
2023/06/29 00:22:26;;;;;;;20.45;11.50;;;18.30;99.90;;;;;;5103212;27;20051;-56
2023/06/29 00:24:59;;;;;;;19.02;11.55;;;18.30;99.90;;;;;;5138395;27;20082;-56
2023/06/29 00:27:25;;;;;;;21.42;11.30;;;18.30;99.90;;;;;;5104028;27;20411;-56
2023/06/29 00:29:50;;;;;;;22.48;12.98;;;18.30;99.90;;;;;;5138302;27;20047;-56
2023/06/29 00:32:16;;;;;;;19.77;10.70;;;18.30;99.90;;;;;;5120057;27;20051;-56
2023/06/29 00:34:42;;;;;;;20.13;11.27;;;18.30;99.90;;;;;;5138187;27;20039;-56
2023/06/29 00:37:08;;;;;;;21.45;11.80;;;18.30;99.90;;;;;;5138288;27;20041;-56
2023/06/29 00:39:34;;;;;;;21.80;12.90;;;18.30;99.90;;;;;;5137995;27;20455;-56
2023/06/29 00:42:00;;;;;;;22.83;11.35;;;18.30;99.90;;;;;;5137740;27;20038;-56
2023/06/29 00:44:26;;;;;;;22.77;11.98;;;18.30;99.90;;;;;;5137977;27;20069;-56
2023/06/29 00:46:53;;;;;;;22.80;12.88;;;18.30;99.90;;;;;;5138020;27;20047;-56
2023/06/29 00:49:20;;;;;;;25.67;12.65;;;18.30;99.90;;;;;;5138028;27;20055;-56
2023/06/29 00:51:51;;;;;;;21.23;12.15;;;18.30;99.90;;;;;;5138125;27;20043;-56
2023/06/29 00:54:17;;;;;;;24.08;12.75;;;18.30;99.90;;;;;;5137788;27;20049;-56
2023/06/29 00:56:44;;;;;;;23.38;12.23;;;18.30;99.90;;;;;;5119276;27;20046;-56
2023/06/29 00:59:10;;;;;;;21.10;12.13;;;18.30;99.90;;;;;;5137869;27;20058;-56
2023/06/29 01:01:38;;;;;;;21.85;12.93;;;18.30;99.90;;;;;;5137548;27;20395;-56
2023/06/29 01:04:05;;;;;;;25.48;12.82;;;18.30;99.90;;;;;;5137549;27;20047;-56
2023/06/29 01:06:37;;;;;;;23.52;12.82;;;18.30;99.90;;;;;;5137675;27;20051;-56
2023/06/29 01:09:06;;;;;;;25.88;14.18;;;18.30;99.90;;;;;;5137514;27;20047;-56
2023/06/29 01:11:34;;;;;;;26.13;13.57;;;18.40;99.90;;;;;;5137516;27;20475;-56
2023/06/29 01:14:03;;;;;;;22.52;12.77;;;18.30;99.90;;;;;;5137703;27;20051;-56
2023/06/29 01:16:33;;;;;;;25.90;13.82;;;18.30;99.90;;;;;;5137361;27;20380;-56
2023/06/29 01:19:05;;;;;;;23.73;12.27;;;18.30;99.90;;;;;;5137200;27;20185;-56
2023/06/29 01:21:35;;;;;;;21.95;12.20;;;18.40;99.90;;;;;;5118140;27;20082;-56
2023/06/29 01:24:03;;;;;;;20.85;11.55;;;18.30;99.90;;;;;;5137327;27;20082;-56
2023/06/29 01:26:29;;;;;;;22.50;12.30;;;18.30;99.90;;;;;;5137375;27;20061;-56
2023/06/29 01:28:56;;;;;;;;;;;18.30;99.90;;;;;;5137607;27;20035;-56
2023/06/29 01:31:26;;;;;;;23.27;12.63;;;18.30;99.90;;;;;;5137227;27;19919;-56
2023/06/29 01:33:53;;;;;;;22.15;12.00;;;18.30;99.90;;;;;;5137021;27;20134;-56
2023/06/29 01:36:33;;;;;;;23.27;12.15;;;18.30;99.90;;;;;;5136732;27;20100;-56
2023/06/29 01:39:16;;;;;;;20.67;11.73;;;18.30;99.90;;;;;;5136922;27;20460;-55
2023/06/29 01:41:43;;;;;;;24.20;12.35;;;18.30;99.90;;;;;;5136904;27;20049;-56
2023/06/29 01:44:14;;;;;;;22.40;12.40;;;18.30;99.90;;;;;;5136879;27;20087;-55
2023/06/29 01:46:40;;;;;;;22.25;11.95;;;18.30;99.90;;;;;;5118475;27;20050;-56
2023/06/29 01:49:06;;;;;;;;;;;18.30;99.90;;;;;;5136988;27;20058;-56
2023/06/29 01:51:32;;;;;;;22.63;13.40;;;18.30;99.90;;;;;;5118637;27;20428;-56
2023/06/29 01:53:58;;;;;;;25.95;13.85;;;18.30;99.90;;;;;;5136681;27;20101;-56
2023/06/29 01:56:23;;;;;;;25.50;13.52;;;18.30;99.90;;;;;;5136522;27;20047;-55
2023/06/29 01:58:49;;;;;;;23.80;12.75;;;18.30;99.90;;;;;;5136593;27;20475;-56
2023/06/29 02:01:15;;;;;;;22.95;13.18;;;18.30;99.90;;;;;;5136298;27;20039;-56
2023/06/29 02:03:40;;;;;;;29.92;14.00;;;18.30;99.90;;;;;;5136575;27;20387;-56
2023/06/29 02:06:06;;;;;;;24.48;14.13;;;18.30;99.90;;;;;;5118829;27;20450;-56
2023/06/29 02:08:33;;;;;;;26.58;13.55;;;18.30;99.90;;;;;;5118297;27;20046;-56
2023/06/29 02:10:59;;;;;;;21.77;13.40;;;18.30;99.90;;;;;;5136339;27;20047;-56
2023/06/29 02:13:24;;;;;;;23.63;13.10;;;18.30;99.90;;;;;;5136373;27;20058;-56
2023/06/29 02:15:50;;;;;;;24.42;12.90;;;18.30;99.90;;;;;;5101166;27;20043;-56
2023/06/29 02:18:16;;;;;;;25.55;12.88;;;18.30;99.90;;;;;;5136118;27;20134;-56
2023/06/29 02:20:42;;;;;;;23.73;13.13;;;18.30;99.90;;;;;;5135942;27;20421;-56
2023/06/29 02:23:07;;;;;;;20.63;12.32;;;18.30;99.90;;;;;;5135984;27;20050;-56
2023/06/29 02:25:33;;;;;;;23.13;12.27;;;18.30;99.90;;;;;;5136029;27;20039;-56
2023/06/29 02:27:59;;;;;;;21.63;11.52;;;18.30;99.90;;;;;;5135977;27;20125;-56
2023/06/29 02:30:24;;;;;;;25.77;13.15;;;18.30;99.90;;;;;;5135715;27;20047;-56
2023/06/29 02:32:50;;;;;;;25.13;12.50;;;18.30;99.90;;;;;;5135732;27;20051;-56
2023/06/29 02:35:15;;;;;;;23.02;13.38;;;18.30;99.90;;;;;;5117779;27;20056;-56
2023/06/29 02:37:41;;;;;;;24.00;13.30;;;18.30;99.90;;;;;;5135710;27;20035;-56
2023/06/29 02:40:07;;;;;;;24.02;13.00;;;18.30;99.90;;;;;;5135776;27;20039;-56
2023/06/29 02:42:33;;;;;;;24.48;12.15;;;18.30;99.90;;;;;;5135646;27;20126;-56
2023/06/29 02:44:59;;;;;;;21.92;12.13;;;18.30;99.90;;;;;;5135491;27;20089;-56
2023/06/29 02:47:24;;;;;;;23.92;13.57;;;18.30;99.90;;;;;;5135701;27;20557;-56
2023/06/29 02:49:50;;;;;;;23.52;12.93;;;18.30;99.90;;;;;;5135863;27;20395;-56
2023/06/29 02:52:16;;;;;;;24.38;13.93;;;18.30;99.90;;;;;;5135458;27;20131;-56
2023/06/29 02:54:41;;;;;;;22.80;12.57;;;18.30;99.90;;;;;;5135593;27;20125;-56
2023/06/29 02:57:07;;;;;;;28.63;13.70;;;18.30;99.90;;;;;;5135301;27;20079;-56
2023/06/29 02:59:34;;;;;;;25.65;13.32;;;18.30;99.90;;;;;;5135334;27;20047;-56
2023/06/29 03:01:59;;;;;;;24.10;13.18;;;18.30;99.90;;;;;;5135284;27;20043;-56
2023/06/29 03:04:25;;;;;;;22.23;12.52;;;18.30;99.90;;;;;;5135260;27;20184;-56
2023/06/29 03:06:50;;;;;;;26.27;13.07;;;18.30;99.90;;;;;;5117684;27;20133;-56
2023/06/29 03:09:16;;;;;;;24.02;12.60;;;18.30;99.90;;;;;;5135128;27;20050;-56
2023/06/29 03:11:42;;;;;;;24.08;12.77;;;18.30;99.90;;;;;;5135273;27;20045;-56
2023/06/29 03:14:07;;;;;;;22.83;11.63;;;18.30;99.90;;;;;;5117026;27;20495;-56
2023/06/29 03:16:33;;;;;;;23.48;12.75;;;18.30;99.90;;;;;;5117147;27;20484;-56
2023/06/29 03:18:59;;;;;;;24.65;12.05;;;18.30;99.90;;;;;;5135224;27;20079;-56
2023/06/29 03:21:24;;;;;;;25.42;13.73;;;18.30;99.90;;;;;;5116725;27;20043;-56
2023/06/29 03:23:50;;;;;;;20.90;11.93;;;18.30;99.90;;;;;;5116843;27;20059;-56
2023/06/29 03:26:16;;;;;;;23.33;11.75;;;18.30;99.90;;;;;;5099865;27;20369;-56
2023/06/29 03:28:42;;;;;;;25.23;12.82;;;18.30;99.90;;;;;;5134856;27;20057;-56
2023/06/29 03:31:07;;;;;;;25.52;12.82;;;18.30;99.90;;;;;;5134774;27;20507;-56
2023/06/29 03:33:33;;;;;;;21.77;11.93;;;18.30;99.90;;;;;;5134775;27;20122;-56
2023/06/29 03:35:59;;;;;;;23.63;12.93;;;18.30;99.90;;;;;;5134829;27;20110;-56
2023/06/29 03:38:24;;;;;;;28.13;14.43;;;18.30;99.90;;;;;;5134710;27;20039;-56
2023/06/29 03:40:50;;;;;;;28.38;13.30;;;18.30;99.90;;;;;;5134775;27;20487;-56
2023/06/29 03:43:16;;;;;;;24.27;13.50;;;18.30;99.90;;;;;;5116248;27;20055;-56
2023/06/29 03:45:41;;;;;;;22.83;13.73;;;18.30;99.90;;;;;;5133993;27;20043;-56
2023/06/29 03:48:07;;;;;;;23.50;12.85;;;18.30;99.90;;;;;;5115958;28;20059;-56
2023/06/29 03:50:33;;;;;;;26.90;13.13;;;18.30;99.90;;;;;;5134427;27;20086;-56
2023/06/29 03:52:59;;;;;;;24.15;13.45;;;18.40;99.90;;;;;;5134806;28;20046;-56
2023/06/29 03:55:24;;;;;;;24.58;13.48;;;18.40;99.90;;;;;;5134568;28;20043;-56
2023/06/29 03:57:50;;;;;;;23.17;12.23;;;18.40;99.90;;;;;;5134288;28;20114;-56
2023/06/29 04:00:17;;;;;;;24.13;12.27;;;18.40;99.90;;;;;;5099060;28;20380;-56
2023/06/29 04:02:42;;;;;;;24.60;12.52;;;18.40;99.90;;;;;;5134553;28;20050;-56
2023/06/29 04:05:09;;;;;;;22.55;12.57;;;18.40;99.90;;;;;;5116336;28;20051;-56
2023/06/29 04:07:35;;;;;;;;;;;18.40;99.90;;;;;;5134904;28;20091;-56
2023/06/29 04:10:00;;;;;;;23.70;13.15;;;18.40;99.90;;;;;;5134709;28;19919;-56
2023/06/29 04:12:26;;;;;;;21.95;11.77;;;18.40;99.90;;;;;;5115895;28;20460;-56
2023/06/29 04:14:52;;;;;;;21.02;12.23;;;18.40;99.90;;;;;;5134097;28;20043;-56
2023/06/29 04:17:18;;;;;;;23.30;12.07;;;18.40;99.90;;;;;;5134364;28;20047;-56
2023/06/29 04:19:43;;;;;;;22.45;12.30;;;18.40;99.90;;;;;;5134392;28;20047;-56
2023/06/29 04:22:09;;;;;;;21.80;12.65;;;18.40;99.90;;;;;;5134362;28;20049;-56
2023/06/29 04:24:34;;;;;;;22.63;12.02;;;18.40;99.90;;;;;;5134160;28;20498;-56
2023/06/29 04:27:00;;;;;;;23.08;12.32;;;18.40;99.90;;;;;;5116153;28;20047;-56
2023/06/29 04:29:26;;;;;;;25.45;12.77;;;18.40;99.90;;;;;;5134087;28;20126;-56
2023/06/29 04:31:54;;;;;;;25.13;12.50;;;18.40;99.90;;;;;;5134206;28;20059;-56
2023/06/29 04:34:20;;;;;;;24.13;12.68;;;18.50;99.90;;;;;;5134189;28;20047;-56
2023/06/29 04:36:46;;;;;;;;;;;18.50;99.90;;;;;;5134539;28;20050;-56
2023/06/29 04:39:13;;;;;;;20.85;11.15;;;18.50;99.90;;;;;;5115780;28;19920;-56
2023/06/29 04:41:41;;;;;;;22.92;12.82;;;18.50;99.90;;;;;;5098695;28;20518;-56
2023/06/29 04:44:10;;;;;;;21.85;11.88;;;18.50;99.90;;;;;;5133964;28;20082;-56
2023/06/29 04:46:39;;;;;;;21.20;12.13;;;18.50;99.90;;;;;;5133904;28;20499;-56
2023/06/29 04:49:06;;;;;;;20.95;11.70;;;18.50;99.90;;;;;;5115653;28;20059;-56
2023/06/29 04:51:34;;;;;;;21.52;11.93;;;18.60;99.90;;;;;;5115989;28;20054;-56
2023/06/29 04:54:00;;;;;;;19.42;11.50;;;18.60;99.90;;;;;;5115871;28;20050;-55
2023/06/29 04:56:26;;;;;;;21.83;11.82;;;18.60;99.90;;;;;;5134689;27;20096;-56
2023/06/29 04:58:51;;;;;;;22.45;12.13;;;18.60;99.90;;;;;;5137491;27;20513;-56
2023/06/29 05:01:17;;;;;;;24.83;11.30;;;18.70;99.90;;;;;;5137748;27;20039;-56
2023/06/29 05:03:43;;;;;;;20.95;11.50;;;18.70;99.90;;;;;;5137695;27;20047;-56
2023/06/29 05:06:08;;;;;;;20.77;11.48;;;18.70;99.90;;;;;;5137495;27;20088;-56
2023/06/29 05:08:34;;;;;;;21.70;11.07;;;18.70;99.90;;;;;;5119496;27;20141;-56
2023/06/29 05:11:00;;;;;;;22.85;11.20;;;18.80;99.90;;;;;;5119179;27;20498;-55
2023/06/29 05:13:25;;;;;;;24.50;12.43;;;18.80;99.90;;;;;;5137258;27;20085;-55
2023/06/29 05:15:51;;;;;;;23.48;12.70;;;18.90;99.90;;;;;;5119402;27;20051;-55
2023/06/29 05:18:17;;;;;;;21.17;11.20;;;18.90;99.90;;;;;;5119393;27;20096;-55
2023/06/29 05:20:43;;;;;;;21.27;11.18;;;18.90;99.90;;;;;;5102180;27;20043;-55
2023/06/29 05:23:11;;;;;;;18.58;10.57;;;18.90;99.90;;;;;;5137271;27;20043;-56
2023/06/29 05:25:39;;;;;;;20.58;10.93;;;18.90;99.90;;;;;;5137228;27;20050;-56
2023/06/29 05:28:05;;;;;;;20.98;11.50;;;18.90;99.90;;;;;;5137193;27;20039;-57
2023/06/29 05:30:31;;;;;;;19.98;10.60;;;19.00;99.90;;;;;;5137194;27;20122;-56
2023/06/29 05:32:56;;;;;;;20.42;9.80;;;19.00;99.90;;;;;;5137055;27;20054;-56
2023/06/29 05:35:22;;;;;;;18.85;10.15;;;19.00;99.90;;;;;;5137160;27;20050;-56
2023/06/29 05:37:47;;;;;;;19.92;11.00;;;19.00;99.90;;;;;;5137173;27;20514;-56
2023/06/29 05:40:13;;;;;;;19.38;9.32;;;19.00;99.90;;;;;;5136865;27;20438;-56
2023/06/29 05:42:39;;;;;;;19.67;10.13;;;19.00;99.90;;;;;;5137252;27;20047;-56
2023/06/29 05:45:06;;;;;;;17.13;9.73;;;19.00;99.90;;;;;;5118551;27;20043;-57
2023/06/29 05:47:31;;;;;;;;;;;19.10;99.90;;;;;;5119082;27;20047;-56
2023/06/29 05:49:57;;;;;;;20.77;10.30;;;19.10;99.90;;;;;;5136625;27;19926;-56
2023/06/29 05:52:23;;;;;;;17.33;9.27;;;19.10;99.90;;;;;;5136874;27;20111;-57
2023/06/29 05:54:48;;;;;;;18.40;9.57;;;19.10;99.90;;;;;;5118084;27;20043;-57
2023/06/29 05:57:15;;;;;;;17.30;10.20;;;19.20;99.90;;;;;;5118298;27;20043;-56
2023/06/29 05:59:41;;;;;;;20.50;10.40;;;19.20;99.90;;;;;;5136562;27;20058;-56
2023/06/29 06:02:06;;;;;;;17.00;9.63;;;19.30;99.90;;;;;;5118432;27;20043;-57
2023/06/29 06:04:34;;;;;;;18.98;9.38;;;19.30;99.90;;;;;;5136390;27;20039;-56
2023/06/29 06:07:00;;;;;;;20.92;9.60;;;19.30;99.90;;;;;;5135943;27;20455;-56
2023/06/29 06:09:25;;;;;;;18.33;8.40;;;19.30;99.90;;;;;;5136060;27;20047;-56
2023/06/29 06:11:51;;;;;;;18.77;9.45;;;19.30;99.90;;;;;;5136461;27;20441;-56
2023/06/29 06:14:16;;;;;;;19.00;8.70;;;19.40;99.90;;;;;;5117922;27;20382;-57
2023/06/29 06:16:42;;;;;;;16.02;8.77;;;19.40;99.90;;;;;;5136631;27;20376;-57
2023/06/29 06:19:08;;;;;;;17.65;8.65;;;19.50;99.90;;;;;;5136123;27;20039;-56
2023/06/29 06:21:33;;;;;;;16.52;8.95;;;19.50;99.90;;;;;;5117851;27;20047;-56
2023/06/29 06:23:59;;;;;;;16.92;7.90;;;19.60;99.90;;;;;;5117656;27;20043;-56
2023/06/29 06:26:25;;;;;;;15.15;8.32;;;19.70;99.90;;;;;;5135831;27;20130;-56
2023/06/29 06:28:51;;;;;;;16.38;8.30;;;19.70;99.90;;;;;;5135751;27;20078;-56
2023/06/29 06:31:17;;;;;;;17.92;8.77;;;19.70;99.90;;;;;;5135971;27;20077;-56
2023/06/29 06:33:43;;;;;;;16.52;9.20;;;19.80;99.90;;;;;;5135902;27;20047;-56
2023/06/29 06:36:09;;;;;;;16.00;8.90;;;19.80;99.90;;;;;;5135839;27;20047;-56
2023/06/29 06:38:34;;;;;;;17.85;8.93;;;19.80;99.90;;;;;;5117177;27;20151;-56
2023/06/29 06:41:00;;;;;;;17.08;9.30;;;19.80;99.90;;;;;;5117458;27;20047;-56
2023/06/29 06:43:26;;;;;;;15.43;8.18;;;19.80;99.90;;;;;;5135657;27;20049;-56
2023/06/29 06:45:52;;;;;;;18.60;7.97;;;19.90;99.90;;;;;;5135634;27;20043;-56
2023/06/29 06:48:18;;;;;;;16.13;7.93;;;19.90;99.90;;;;;;5135593;27;20498;-56
2023/06/29 06:50:44;;;;;;;;;;;19.90;99.90;;;;;;5117802;27;20051;-56
2023/06/29 06:53:10;;;;;;;15.35;8.45;;;19.90;99.90;;;;;;5135353;27;19919;-56
2023/06/29 06:55:35;;;;;;;18.15;8.88;;;19.90;99.90;;;;;;5135353;27;20059;-56
2023/06/29 06:58:01;;;;;;;18.27;8.30;;;20.00;99.90;;;;;;5116906;27;20040;-56
2023/06/29 07:00:27;;;;;;;19.20;8.82;;;19.90;99.90;;;;;;5135322;27;20053;-56
2023/06/29 07:02:53;;;;;;;16.33;8.32;;;20.00;99.90;;;;;;5135515;27;20050;-56
2023/06/29 07:05:18;;;;;;;18.98;8.38;;;19.90;99.90;;;;;;5135296;27;20043;-56
2023/06/29 07:07:46;;;;;;;15.57;7.70;;;20.00;99.90;;;;;;5135085;27;20050;-56
2023/06/29 07:10:12;;;;;;;19.42;8.25;;;19.90;99.90;;;;;;5134952;27;20047;-56
2023/06/29 07:12:38;;;;;;;20.45;9.13;;;20.00;99.90;;;;;;5135208;27;20043;-56
2023/06/29 07:15:05;;;;;;;18.40;8.77;;;20.00;99.90;;;;;;5116997;27;20054;-56
2023/06/29 07:17:32;;;;;;;18.98;8.60;;;20.00;99.90;;;;;;5135356;27;20188;-56
2023/06/29 07:19:57;;;;;;;18.48;8.90;;;20.10;99.90;;;;;;5134594;27;20403;-56
2023/06/29 07:22:23;;;;;;;20.33;9.50;;;20.00;99.90;;;;;;5134802;27;20043;-56
2023/06/29 07:24:49;;;;;;;17.42;9.13;;;20.10;99.90;;;;;;5134957;27;20085;-56
2023/06/29 07:27:15;;;;;;;18.10;8.48;;;20.10;99.90;;;;;;5134939;27;20092;-56
2023/06/29 07:29:42;;;;;;;16.88;7.45;;;20.10;99.90;;;;;;5134829;27;20107;-56
2023/06/29 07:32:09;;;;;;;16.65;8.13;;;20.10;99.90;;;;;;5116601;27;20495;-56
2023/06/29 07:34:34;;;;;;;16.80;8.38;;;20.10;99.90;;;;;;5134719;27;20043;-56
2023/06/29 07:37:00;;;;;;;16.70;8.60;;;20.20;99.90;;;;;;5099373;28;20129;-56
2023/06/29 07:39:27;;;;;;;18.88;8.60;;;20.20;99.90;;;;;;5134506;27;20483;-56
2023/06/29 07:41:53;;;;;;;15.02;8.10;;;20.20;99.90;;;;;;5116694;27;20074;-56
2023/06/29 07:44:18;;;;;;;17.15;8.57;;;20.10;99.90;;;;;;5135105;27;20480;-56
2023/06/29 07:46:44;;;;;;;17.45;8.40;;;20.20;99.90;;;;;;5134548;27;20055;-56
2023/06/29 07:49:10;;;;;;;16.17;8.35;;;20.10;99.90;;;;;;5134554;27;20051;-56
2023/06/29 07:51:37;;;;;;;18.35;8.65;;;20.20;99.90;;;;;;5134448;27;20099;-56
2023/06/29 07:54:04;;;;;;;17.88;8.85;;;20.20;99.90;;;;;;5134484;28;20051;-56
2023/06/29 07:56:31;;;;;;;19.40;8.90;;;20.20;99.90;;;;;;5134870;28;20047;-56
2023/06/29 07:58:56;;;;;;;18.15;9.65;;;20.20;99.90;;;;;;5134942;28;20108;-56
2023/06/29 08:01:22;;;;;;;21.15;11.35;;;20.20;99.90;;;;;;5134662;28;20476;-56
2023/06/29 08:03:48;;;;;;;27.58;9.23;;;20.20;99.90;;;;;;5134514;28;20133;-56
2023/06/29 08:06:14;;;;;;;17.98;9.15;;;20.10;99.90;;;;;;5115921;28;20043;-56
2023/06/29 08:08:39;;;;;;;17.83;9.40;;;20.10;99.90;;;;;;5116599;28;20057;-56
2023/06/29 08:11:05;;;;;;;19.60;8.40;;;20.10;99.90;;;;;;5116258;28;20399;-56
2023/06/29 08:13:31;;;;;;;20.42;8.05;;;20.10;99.90;;;;;;5134817;28;20047;-56
2023/06/29 08:15:56;;;;;;;18.13;8.57;;;20.10;99.90;;;;;;5134363;28;20448;-56
2023/06/29 08:18:22;;;;;;;20.10;9.30;;;20.10;99.90;;;;;;5116016;28;20517;-56
2023/06/29 08:20:48;;;;;;;19.38;8.73;;;20.10;99.90;;;;;;5134149;28;20394;-56
2023/06/29 08:23:14;;;;;;;16.98;8.40;;;20.10;99.90;;;;;;5134393;28;20398;-56
2023/06/29 08:25:40;;;;;;;;;;;20.10;99.90;;;;;;5134709;28;20039;-56
2023/06/29 08:28:06;;;;;;;21.42;9.07;;;20.10;99.90;;;;;;5134351;28;19920;-56
2023/06/29 08:30:32;;;;;;;20.67;9.30;;;20.20;99.90;;;;;;5135326;27;20043;-56
2023/06/29 08:32:58;;;;;;;15.80;8.45;;;20.20;99.90;;;;;;5119993;27;20047;-56
2023/06/29 08:35:23;;;;;;;19.00;9.10;;;20.20;99.90;;;;;;5137959;27;20050;-56
2023/06/29 08:37:49;;;;;;;21.25;10.00;;;20.20;99.90;;;;;;5138097;27;20054;-56
2023/06/29 08:40:18;;;;;;;19.25;10.05;;;20.20;99.90;;;;;;5120053;27;20051;-56
2023/06/29 08:42:44;;;;;;;21.30;9.93;;;20.30;99.90;;;;;;5138216;27;20508;-56
2023/06/29 08:45:10;;;;;;;41.90;12.30;;;20.40;99.90;;;;;;5138174;27;20050;-56
2023/06/29 08:47:37;;;;;;;19.17;9.30;;;20.40;99.90;;;;;;5137645;27;20047;-56
2023/06/29 08:50:05;;;;;;;18.15;9.57;;;20.50;99.90;;;;;;5138041;27;20059;-56
2023/06/29 08:52:33;;;;;;;19.83;10.27;;;20.50;99.90;;;;;;5137919;27;20093;-56
2023/06/29 08:55:01;;;;;;;18.80;8.25;;;20.60;99.90;;;;;;5138233;27;20047;-56
2023/06/29 08:57:31;;;;;;;17.83;9.27;;;20.60;99.90;;;;;;5119585;27;20122;-56
2023/06/29 08:59:59;;;;;;;20.70;9.23;;;20.60;99.90;;;;;;5138018;27;20470;-56
2023/06/29 09:02:27;;;;;;;19.65;9.30;;;20.70;99.90;;;;;;5137617;27;20055;-56
2023/06/29 09:04:52;;;;;;;19.45;8.90;;;20.70;99.90;;;;;;5137562;27;20057;-56
2023/06/29 09:07:18;;;;;;;19.63;9.65;;;20.70;99.90;;;;;;5102474;27;20043;-56
2023/06/29 09:09:44;;;;;;;18.42;9.93;;;20.80;99.90;;;;;;5137532;27;20046;-56
2023/06/29 09:12:12;;;;;;;19.20;10.48;;;20.80;99.90;;;;;;5137439;27;20047;-56
2023/06/29 09:14:44;;;;;;;21.58;10.27;;;20.80;99.90;;;;;;5137563;27;20480;-54
2023/06/29 09:17:17;;;;;;;18.83;9.05;;;20.80;99.90;;;;;;5118724;27;20048;-56
2023/06/29 09:19:56;;;;;;;21.98;9.45;;;20.90;99.90;;;;;;5137391;27;20047;-56
2023/06/29 09:22:25;;;;;;;19.08;9.18;;;20.90;99.90;;;;;;5137428;27;20391;-56
2023/06/29 09:24:56;;;;;;;20.58;9.52;;;20.90;99.90;;;;;;5137240;27;20043;-56
2023/06/29 09:27:22;;;;;;;19.92;9.00;;;20.90;99.90;;;;;;5137149;27;20035;-56
2023/06/29 09:29:51;;;;;;;20.23;9.45;;;20.90;99.90;;;;;;5137085;27;20487;-56
2023/06/29 09:32:17;;;;;;;20.38;9.10;;;20.90;99.90;;;;;;5136872;27;20491;-56
2023/06/29 09:34:47;;;;;;;19.23;9.77;;;20.90;99.90;;;;;;5137574;27;20395;-56
2023/06/29 09:37:16;;;;;;;19.65;9.25;;;20.90;99.90;;;;;;5118889;27;20105;-56
2023/06/29 09:40:00;;;;;;;20.25;10.00;;;21.00;99.90;;;;;;5136859;27;20473;-56
2023/06/29 09:42:29;;;;;;;17.80;9.77;;;21.00;99.90;;;;;;5136299;27;20065;-56
2023/06/29 09:45:11;;;;;;;21.15;10.40;;;21.10;99.90;;;;;;5136880;27;20178;-56
2023/06/29 09:47:40;;;;;;;20.90;10.38;;;21.10;99.90;;;;;;5136753;27;20061;-55
2023/06/29 09:50:16;;;;;;;17.40;9.35;;;21.10;99.90;;;;;;5136740;27;20047;-56
2023/06/29 09:52:47;;;;;;;20.38;10.02;;;21.20;99.90;;;;;;5136697;27;20102;-56
2023/06/29 09:55:16;;;;;;;23.05;11.38;;;21.10;99.90;;;;;;5136671;27;20130;-56
2023/06/29 09:57:43;;;;;;;19.90;9.98;;;21.20;99.90;;;;;;5136473;27;20114;-56
2023/06/29 10:00:13;;;;;;;20.70;10.02;;;21.10;99.90;;;;;;5136529;27;20046;-56
2023/06/29 10:02:40;;;;;;;21.15;10.60;;;21.10;99.90;;;;;;5136620;27;20087;-56
2023/06/29 10:05:07;;;;;;;20.33;10.63;;;21.10;99.90;;;;;;5136336;27;20043;-56
2023/06/29 10:07:34;;;;;;;20.75;10.32;;;21.00;99.90;;;;;;5136324;27;20043;-56
2023/06/29 10:10:01;;;;;;;20.13;10.23;;;21.00;99.90;;;;;;5136489;27;20055;-56
2023/06/29 10:12:28;;;;;;;21.23;9.85;;;20.90;99.90;;;;;;5136401;27;20111;-56
2023/06/29 10:14:58;;;;;;;19.52;10.25;;;20.90;99.90;;;;;;5136191;27;20491;-56
2023/06/29 10:17:53;;;;;;;20.75;11.27;;;21.00;99.90;;;;;;5136185;27;20166;-56
2023/06/29 10:20:24;;;;;;;18.17;9.57;;;21.00;99.90;;;;;;5136307;27;20039;-56
2023/06/29 10:22:50;;;;;;;19.45;10.55;;;21.00;99.90;;;;;;5136364;27;20054;-56
2023/06/29 10:25:20;;;;;;;22.13;10.82;;;21.00;99.90;;;;;;5136149;27;20090;-56
2023/06/29 10:27:47;;;;;;;20.65;10.95;;;21.00;99.90;;;;;;5117699;27;20043;-56
2023/06/29 10:30:18;;;;;;;19.13;10.93;;;21.00;99.90;;;;;;5135802;27;20051;-56
2023/06/29 10:32:49;;;;;;;22.42;11.43;;;21.00;99.90;;;;;;5136067;27;20122;-56
2023/06/29 10:35:15;;;;;;;21.42;10.60;;;21.00;99.90;;;;;;5135737;27;20499;-56
2023/06/29 10:37:42;;;;;;;20.15;10.38;;;20.90;99.90;;;;;;5135741;27;20086;-56
2023/06/29 10:40:15;;;;;;;19.80;9.45;;;20.90;99.90;;;;;;5117327;27;20083;-56
2023/06/29 10:42:40;;;;;;;19.00;10.38;;;20.90;99.90;;;;;;5135676;27;20047;-54
2023/06/29 10:45:18;;;;;;;22.13;11.35;;;20.90;99.90;;;;;;5117656;27;20046;-54
2023/06/29 10:47:46;;;;;;;23.52;10.70;;;20.90;99.90;;;;;;5135559;27;20092;-56
2023/06/29 10:50:11;;;;;;;20.23;10.23;;;20.80;99.90;;;;;;5135656;27;20540;-56
2023/06/29 10:52:38;;;;;;;19.77;11.40;;;20.80;99.90;;;;;;5135737;27;20059;-56
2023/06/29 10:55:22;;;;;;;20.27;10.85;;;20.80;99.90;;;;;;5134585;27;20051;-56
2023/06/29 10:57:59;;;;;;;21.85;11.25;;;20.80;99.90;;;;;;5117199;27;20075;-56
2023/06/29 11:00:26;;;;;;;19.92;11.20;;;20.70;99.90;;;;;;5117429;27;20054;-55
2023/06/29 11:02:53;;;;;;;20.38;11.57;;;20.60;99.90;;;;;;5117096;27;20059;-56
2023/06/29 11:05:20;;;;;;;20.10;10.85;;;20.60;99.90;;;;;;5117148;27;20055;-55
2023/06/29 11:07:52;;;;;;;22.08;12.45;;;20.50;99.90;;;;;;5135015;27;20433;-56
2023/06/29 11:10:20;;;;;;;21.05;10.50;;;20.50;99.90;;;;;;5135311;27;20039;-56
2023/06/29 11:12:45;;;;;;;24.20;11.05;;;20.50;99.90;;;;;;5135245;27;20042;-55
2023/06/29 11:15:13;;;;;;;19.33;10.50;;;20.50;99.90;;;;;;5135219;27;20369;-56
2023/06/29 11:17:39;;;;;;;17.83;9.32;;;20.50;99.90;;;;;;5134989;27;20035;-56
2023/06/29 11:20:06;;;;;;;18.60;9.40;;;20.50;99.90;;;;;;5134923;27;20082;-56
2023/06/29 11:22:33;;;;;;;21.23;9.48;;;20.60;99.90;;;;;;5116679;27;20523;-56
2023/06/29 11:24:58;;;;;;;21.30;9.93;;;20.60;99.90;;;;;;5134995;27;20477;-56
2023/06/29 11:27:24;;;;;;;17.88;9.30;;;20.70;99.90;;;;;;5117028;27;20043;-56
2023/06/29 11:29:54;;;;;;;19.75;10.48;;;20.70;99.90;;;;;;5135123;27;20044;-56
2023/06/29 11:32:20;;;;;;;19.65;9.70;;;20.80;99.90;;;;;;5134852;27;20050;-56
2023/06/29 11:34:46;;;;;;;19.67;10.77;;;20.90;99.90;;;;;;5134758;27;20126;-56
2023/06/29 11:37:12;;;;;;;17.90;9.20;;;20.90;99.90;;;;;;5135032;27;20134;-56
2023/06/29 11:39:37;;;;;;;18.85;11.07;;;21.00;99.90;;;;;;5134800;27;20039;-56
2023/06/29 11:42:08;;;;;;;19.38;10.30;;;21.00;99.90;;;;;;5134800;27;20050;-56
2023/06/29 11:44:34;;;;;;;17.38;9.27;;;21.10;99.90;;;;;;5116573;27;20050;-56
2023/06/29 11:47:00;;;;;;;19.85;10.90;;;21.10;99.90;;;;;;5134760;27;20039;-56
2023/06/29 11:49:26;;;;;;;19.55;10.60;;;21.10;99.90;;;;;;5134154;27;20495;-56
2023/06/29 11:51:52;;;;;;;21.52;10.68;;;21.10;99.90;;;;;;5116897;28;20047;-55
2023/06/29 11:54:18;;;;;;;;;;;21.10;99.90;;;;;;5135112;28;20077;-56
2023/06/29 11:56:44;;;;;;;18.98;9.80;;;21.10;99.90;;;;;;5134585;28;19919;-56
2023/06/29 11:59:12;;;;;;;18.70;9.25;;;21.10;99.90;;;;;;5134887;28;20085;-55
2023/06/29 12:01:39;;;;;;;19.75;10.73;;;21.20;99.90;;;;;;5116340;28;20058;-56
2023/06/29 12:04:05;;;;;;;17.75;9.68;;;21.20;99.90;;;;;;5134394;28;20100;-56
2023/06/29 12:06:35;;;;;;;21.33;10.38;;;21.30;99.90;;;;;;5137621;27;20056;-56
2023/06/29 12:09:09;;;;;;;20.00;10.95;;;21.30;99.90;;;;;;5138821;27;20061;-56
2023/06/29 12:11:35;;;;;;;20.48;11.20;;;21.40;99.90;;;;;;5138822;27;20047;-55
2023/06/29 12:14:01;;;;;;;23.67;11.27;;;21.50;99.90;;;;;;5138671;27;20099;-56
2023/06/29 12:16:26;;;;;;;20.88;10.95;;;21.50;99.90;;;;;;5138478;27;20044;-56
2023/06/29 12:18:52;;;;;;;21.35;11.13;;;21.60;99.90;;;;;;5138232;27;20046;-56
2023/06/29 12:21:19;;;;;;;22.17;11.63;;;21.60;99.90;;;;;;5120233;27;20043;-56
2023/06/29 12:23:45;;;;;;;23.38;11.50;;;21.60;99.90;;;;;;5138681;27;20047;-50
2023/06/29 12:26:11;;;;;;;22.40;11.57;;;21.60;99.90;;;;;;5138494;27;20062;-55
2023/06/29 12:28:38;;;;;;;23.30;12.40;;;21.60;99.90;;;;;;5138464;27;20051;-56
2023/06/29 12:31:05;;;;;;;26.17;11.93;;;21.60;99.90;;;;;;5138402;27;20043;-56